sensor_id;sensor_type;location;lat;lon;timestamp;pressure;altitude;pressure_sealevel;temperature;humidity
50103;BME280;35993;52.604;10.078;2023-05-14T00:01:33;101586.53;;;13.70;62.72
50103;BME280;35993;52.604;10.078;2023-05-14T00:03:59;101587.34;;;13.70;62.78
50103;BME280;35993;52.604;10.078;2023-05-14T00:06:25;101587.81;;;13.54;63.48
50103;BME280;35993;52.604;10.078;2023-05-14T00:08:50;101589.75;;;13.40;64.29
50103;BME280;35993;52.604;10.078;2023-05-14T00:11:16;101595.00;;;13.28;64.77
50103;BME280;35993;52.604;10.078;2023-05-14T00:13:41;101587.25;;;13.32;64.55
50103;BME280;35993;52.604;10.078;2023-05-14T00:16:07;101577.16;;;13.46;64.23
50103;BME280;35993;52.604;10.078;2023-05-14T00:18:32;101578.63;;;13.48;64.33
50103;BME280;35993;52.604;10.078;2023-05-14T00:20:58;101583.22;;;13.48;64.83
50103;BME280;35993;52.604;10.078;2023-05-14T00:23:23;101576.97;;;13.40;65.23
50103;BME280;35993;52.604;10.078;2023-05-14T00:25:49;101579.28;;;13.23;65.33
50103;BME280;35993;52.604;10.078;2023-05-14T00:28:15;101572.78;;;13.24;65.57
50103;BME280;35993;52.604;10.078;2023-05-14T00:30:41;101573.63;;;13.25;65.95
50103;BME280;35993;52.604;10.078;2023-05-14T00:33:07;101560.19;;;13.30;65.97
50103;BME280;35993;52.604;10.078;2023-05-14T00:35:33;101567.94;;;13.33;66.03
50103;BME280;35993;52.604;10.078;2023-05-14T00:38:01;101574.28;;;13.14;67.14
50103;BME280;35993;52.604;10.078;2023-05-14T00:40:28;101562.31;;;13.08;67.27
50103;BME280;35993;52.604;10.078;2023-05-14T00:42:54;101559.19;;;12.98;67.85
50103;BME280;35993;52.604;10.078;2023-05-14T00:45:20;101556.47;;;12.98;68.04
50103;BME280;35993;52.604;10.078;2023-05-14T00:47:47;101560.88;;;13.05;67.45
50103;BME280;35993;52.604;10.078;2023-05-14T00:50:14;101558.56;;;13.02;68.02
50103;BME280;35993;52.604;10.078;2023-05-14T00:52:40;101557.72;;;13.02;67.72
50103;BME280;35993;52.604;10.078;2023-05-14T00:55:06;101566.53;;;13.04;68.19
50103;BME280;35993;52.604;10.078;2023-05-14T00:57:36;101558.97;;;12.99;68.26
50103;BME280;35993;52.604;10.078;2023-05-14T01:00:03;101557.75;;;12.88;69.09
50103;BME280;35993;52.604;10.078;2023-05-14T01:02:29;101563.00;;;12.83;69.38
50103;BME280;35993;52.604;10.078;2023-05-14T01:04:55;101563.63;;;12.78;70.09
50103;BME280;35993;52.604;10.078;2023-05-14T01:10:16;101567.63;;;12.62;70.71
50103;BME280;35993;52.604;10.078;2023-05-14T01:12:59;101562.59;;;12.59;70.95
50103;BME280;35993;52.604;10.078;2023-05-14T01:15:30;101564.28;;;12.54;71.19
50103;BME280;35993;52.604;10.078;2023-05-14T01:18:09;101568.88;;;12.46;71.52
50103;BME280;35993;52.604;10.078;2023-05-14T01:20:36;101568.25;;;12.44;71.76
50103;BME280;35993;52.604;10.078;2023-05-14T01:23:02;101567.00;;;12.47;71.95
50103;BME280;35993;52.604;10.078;2023-05-14T01:25:29;101563.63;;;12.45;71.83
50103;BME280;35993;52.604;10.078;2023-05-14T01:28:10;101562.38;;;12.41;72.26
50103;BME280;35993;52.604;10.078;2023-05-14T01:30:47;101556.09;;;12.40;72.48
50103;BME280;35993;52.604;10.078;2023-05-14T01:33:15;101559.44;;;12.42;72.87
50103;BME280;35993;52.604;10.078;2023-05-14T01:35:46;101559.44;;;12.36;73.03
50103;BME280;35993;52.604;10.078;2023-05-14T01:38:14;101567.19;;;12.25;73.73
50103;BME280;35993;52.604;10.078;2023-05-14T01:40:43;101560.66;;;12.20;73.96
50103;BME280;35993;52.604;10.078;2023-05-14T01:43:09;101556.09;;;12.20;74.25
50103;BME280;35993;52.604;10.078;2023-05-14T01:45:36;101557.56;;;12.16;74.30
50103;BME280;35993;52.604;10.078;2023-05-14T01:48:03;101558.97;;;12.12;74.49
50103;BME280;35993;52.604;10.078;2023-05-14T01:50:28;101557.94;;;12.13;74.49
50103;BME280;35993;52.604;10.078;2023-05-14T01:52:54;101552.50;;;12.13;74.12
50103;BME280;35993;52.604;10.078;2023-05-14T01:55:24;101561.09;;;12.10;74.54
50103;BME280;35993;52.604;10.078;2023-05-14T01:57:50;101558.16;;;12.11;74.72
50103;BME280;35993;52.604;10.078;2023-05-14T02:00:17;101558.81;;;12.13;74.78
50103;BME280;35993;52.604;10.078;2023-05-14T02:02:42;101560.44;;;12.15;74.63
50103;BME280;35993;52.604;10.078;2023-05-14T02:05:11;101555.44;;;12.11;75.05
50103;BME280;35993;52.604;10.078;2023-05-14T02:07:37;101557.56;;;12.23;74.50
50103;BME280;35993;52.604;10.078;2023-05-14T02:10:03;101555.88;;;12.28;74.72
50103;BME280;35993;52.604;10.078;2023-05-14T02:12:28;101558.38;;;12.23;74.81
50103;BME280;35993;52.604;10.078;2023-05-14T02:14:54;101556.91;;;12.21;74.98
50103;BME280;35993;52.604;10.078;2023-05-14T02:17:20;101555.03;;;12.21;75.37
50103;BME280;35993;52.604;10.078;2023-05-14T02:19:45;101563.22;;;12.21;75.21
50103;BME280;35993;52.604;10.078;2023-05-14T02:22:11;101556.91;;;12.07;76.22
50103;BME280;35993;52.604;10.078;2023-05-14T02:24:37;101550.81;;;11.99;76.66
50103;BME280;35993;52.604;10.078;2023-05-14T02:27:03;101556.63;;;11.95;76.71
50103;BME280;35993;52.604;10.078;2023-05-14T02:29:29;101553.66;;;11.90;77.06
50103;BME280;35993;52.604;10.078;2023-05-14T02:31:55;101552.06;;;11.96;76.96
50103;BME280;35993;52.604;10.078;2023-05-14T02:34:20;101555.13;;;11.86;77.20
50103;BME280;35993;52.604;10.078;2023-05-14T02:36:46;101552.19;;;11.81;77.43
50103;BME280;35993;52.604;10.078;2023-05-14T02:39:12;101550.72;;;11.85;77.44
50103;BME280;35993;52.604;10.078;2023-05-14T02:41:37;101552.19;;;11.88;77.32
50103;BME280;35993;52.604;10.078;2023-05-14T02:44:03;101546.97;;;11.86;77.16
50103;BME280;35993;52.604;10.078;2023-05-14T02:46:30;101545.47;;;11.77;77.60
50103;BME280;35993;52.604;10.078;2023-05-14T02:48:56;101543.59;;;11.77;78.03
50103;BME280;35993;52.604;10.078;2023-05-14T02:51:22;101550.28;;;11.75;78.14
50103;BME280;35993;52.604;10.078;2023-05-14T02:53:47;101543.56;;;11.71;78.16
50103;BME280;35993;52.604;10.078;2023-05-14T02:56:13;101544.81;;;11.68;78.51
50103;BME280;35993;52.604;10.078;2023-05-14T02:58:39;101540.41;;;11.67;78.72
50103;BME280;35993;52.604;10.078;2023-05-14T03:01:04;101544.19;;;11.66;78.60
50103;BME280;35993;52.604;10.078;2023-05-14T03:03:30;101529.72;;;11.59;79.00
50103;BME280;35993;52.604;10.078;2023-05-14T03:05:55;101541.84;;;11.56;79.64
50103;BME280;35993;52.604;10.078;2023-05-14T03:08:21;101542.03;;;11.48;80.22
50103;BME280;35993;52.604;10.078;2023-05-14T03:10:47;101542.81;;;11.42;80.52
50103;BME280;35993;52.604;10.078;2023-05-14T03:13:12;101536.97;;;11.38;80.94
50103;BME280;35993;52.604;10.078;2023-05-14T03:15:43;101539.50;;;11.40;81.32
50103;BME280;35993;52.604;10.078;2023-05-14T03:18:08;101537.59;;;11.40;81.02
50103;BME280;35993;52.604;10.078;2023-05-14T03:20:34;101547.44;;;11.41;81.17
50103;BME280;35993;52.604;10.078;2023-05-14T03:23:00;101543.03;;;11.40;81.59
50103;BME280;35993;52.604;10.078;2023-05-14T03:25:25;101544.28;;;11.38;81.74
50103;BME280;35993;52.604;10.078;2023-05-14T03:27:51;101543.03;;;11.40;81.04
50103;BME280;35993;52.604;10.078;2023-05-14T03:30:16;101542.00;;;11.41;80.94
50103;BME280;35993;52.604;10.078;2023-05-14T03:32:42;101547.22;;;11.43;81.16
50103;BME280;35993;52.604;10.078;2023-05-14T03:35:08;101548.03;;;11.37;81.40
50103;BME280;35993;52.604;10.078;2023-05-14T03:37:34;101550.97;;;11.35;81.39
50103;BME280;35993;52.604;10.078;2023-05-14T03:39:59;101551.81;;;11.36;81.85
50103;BME280;35993;52.604;10.078;2023-05-14T03:42:25;101550.50;;;11.31;81.97
50103;BME280;35993;52.604;10.078;2023-05-14T03:44:51;101550.09;;;11.28;82.22
50103;BME280;35993;52.604;10.078;2023-05-14T03:47:17;101543.44;;;11.30;82.14
50103;BME280;35993;52.604;10.078;2023-05-14T03:49:42;101537.09;;;11.23;82.35
50103;BME280;35993;52.604;10.078;2023-05-14T03:52:10;101541.09;;;11.27;82.75
50103;BME280;35993;52.604;10.078;2023-05-14T03:54:41;101535.97;;;11.53;82.70
50103;BME280;35993;52.604;10.078;2023-05-14T03:57:07;101531.97;;;12.04;80.08
50103;BME280;35993;52.604;10.078;2023-05-14T03:59:32;101528.63;;;12.08;79.07
50103;BME280;35993;52.604;10.078;2023-05-14T04:01:58;101531.59;;;12.13;78.76
50103;BME280;35993;52.604;10.078;2023-05-14T04:04:24;101528.44;;;12.23;78.37
50103;BME280;35993;52.604;10.078;2023-05-14T04:06:50;101527.38;;;12.31;77.81
50103;BME280;35993;52.604;10.078;2023-05-14T04:09:15;101537.47;;;12.31;77.69
50103;BME280;35993;52.604;10.078;2023-05-14T04:11:41;101528.44;;;12.23;78.08
50103;BME280;35993;52.604;10.078;2023-05-14T04:14:07;101525.91;;;12.35;77.87
50103;BME280;35993;52.604;10.078;2023-05-14T04:16:32;101530.34;;;12.43;77.48
50103;BME280;35993;52.604;10.078;2023-05-14T04:19:01;101533.06;;;12.56;76.77
50103;BME280;35993;52.604;10.078;2023-05-14T04:21:28;101533.28;;;12.48;76.71
50103;BME280;35993;52.604;10.078;2023-05-14T04:23:53;101528.66;;;12.55;76.52
50103;BME280;35993;52.604;10.078;2023-05-14T04:26:19;101522.34;;;12.68;75.65
50103;BME280;35993;52.604;10.078;2023-05-14T04:28:45;101523.84;;;12.77;75.37
50103;BME280;35993;52.604;10.078;2023-05-14T04:31:11;101523.41;;;12.67;76.20
50103;BME280;35993;52.604;10.078;2023-05-14T04:33:36;101521.69;;;12.86;76.08
50103;BME280;35993;52.604;10.078;2023-05-14T04:36:02;101517.66;;;13.09;74.69
50103;BME280;35993;52.604;10.078;2023-05-14T04:38:29;101514.13;;;13.08;74.34
50103;BME280;35993;52.604;10.078;2023-05-14T04:40:56;101515.09;;;13.27;74.33
50103;BME280;35993;52.604;10.078;2023-05-14T04:43:21;101516.22;;;13.06;74.66
50103;BME280;35993;52.604;10.078;2023-05-14T04:45:47;101519.78;;;13.07;75.62
50103;BME280;35993;52.604;10.078;2023-05-14T04:48:12;101525.44;;;13.05;75.62
50103;BME280;35993;52.604;10.078;2023-05-14T04:50:38;101519.91;;;13.32;75.20
50103;BME280;35993;52.604;10.078;2023-05-14T04:53:04;101517.72;;;13.61;73.48
50103;BME280;35993;52.604;10.078;2023-05-14T04:55:29;101519.06;;;13.84;73.18
50103;BME280;35993;52.604;10.078;2023-05-14T04:57:55;101526.19;;;13.85;72.66
50103;BME280;35993;52.604;10.078;2023-05-14T05:00:20;101514.25;;;14.11;71.62
50103;BME280;35993;52.604;10.078;2023-05-14T05:02:47;101505.41;;;14.16;71.44
50103;BME280;35993;52.604;10.078;2023-05-14T05:05:13;101509.75;;;14.23;70.75
50103;BME280;35993;52.604;10.078;2023-05-14T05:07:38;101510.53;;;14.56;70.24
50103;BME280;35993;52.604;10.078;2023-05-14T05:10:04;101508.47;;;14.26;69.93
50103;BME280;35993;52.604;10.078;2023-05-14T05:12:30;101524.75;;;13.75;73.06
50103;BME280;35993;52.604;10.078;2023-05-14T05:14:56;101518.91;;;14.61;70.78
50103;BME280;35993;52.604;10.078;2023-05-14T05:17:22;101514.16;;;14.75;69.97
50103;BME280;35993;52.604;10.078;2023-05-14T05:19:48;101518.44;;;14.89;69.74
50103;BME280;35993;52.604;10.078;2023-05-14T05:22:14;101519.22;;;14.46;71.01
50103;BME280;35993;52.604;10.078;2023-05-14T05:24:39;101521.69;;;14.29;71.66
50103;BME280;35993;52.604;10.078;2023-05-14T05:27:05;101524.19;;;14.31;72.04
50103;BME280;35993;52.604;10.078;2023-05-14T05:29:31;101514.59;;;15.16;69.66
50103;BME280;35993;52.604;10.078;2023-05-14T05:31:57;101504.53;;;15.47;68.28
50103;BME280;35993;52.604;10.078;2023-05-14T05:34:24;101507.00;;;15.67;67.87
50103;BME280;35993;52.604;10.078;2023-05-14T05:36:50;101502.47;;;15.91;66.10
50103;BME280;35993;52.604;10.078;2023-05-14T05:39:16;101496.53;;;16.06;65.30
50103;BME280;35993;52.604;10.078;2023-05-14T05:41:42;101505.31;;;16.27;65.40
50103;BME280;35993;52.604;10.078;2023-05-14T05:44:08;101495.66;;;16.24;64.80
50103;BME280;35993;52.604;10.078;2023-05-14T05:46:34;101501.25;;;16.41;64.74
50103;BME280;35993;52.604;10.078;2023-05-14T05:48:59;101508.75;;;16.46;64.50
50103;BME280;35993;52.604;10.078;2023-05-14T05:51:25;101510.78;;;16.50;64.78
50103;BME280;35993;52.604;10.078;2023-05-14T05:53:51;101508.19;;;16.44;65.71
50103;BME280;35993;52.604;10.078;2023-05-14T05:56:16;101502.94;;;16.54;64.91
50103;BME280;35993;52.604;10.078;2023-05-14T05:58:42;101502.31;;;16.87;63.83
50103;BME280;35993;52.604;10.078;2023-05-14T06:01:07;101504.81;;;16.89;64.60
50103;BME280;35993;52.604;10.078;2023-05-14T06:03:33;101505.31;;;16.98;64.37
50103;BME280;35993;52.604;10.078;2023-05-14T06:05:58;101502.81;;;17.08;64.15
50103;BME280;35993;52.604;10.078;2023-05-14T06:08:24;101499.69;;;17.16;62.83
50103;BME280;35993;52.604;10.078;2023-05-14T06:10:49;101496.53;;;17.36;62.86
50103;BME280;35993;52.604;10.078;2023-05-14T06:13:15;101496.59;;;17.53;61.72
50103;BME280;35993;52.604;10.078;2023-05-14T06:15:40;101494.63;;;17.66;61.14
50103;BME280;35993;52.604;10.078;2023-05-14T06:18:06;101490.75;;;17.50;60.93
50103;BME280;35993;52.604;10.078;2023-05-14T06:20:31;101491.78;;;17.61;61.29
50103;BME280;35993;52.604;10.078;2023-05-14T06:22:57;101494.22;;;17.45;61.64
50103;BME280;35993;52.604;10.078;2023-05-14T06:25:23;101494.84;;;17.47;60.99
50103;BME280;35993;52.604;10.078;2023-05-14T06:27:48;101494.47;;;17.44;61.51
50103;BME280;35993;52.604;10.078;2023-05-14T06:30:14;101498.03;;;17.56;60.33
50103;BME280;35993;52.604;10.078;2023-05-14T06:32:39;101494.53;;;17.90;60.60
50103;BME280;35993;52.604;10.078;2023-05-14T06:35:05;101492.50;;;17.97;60.02
50103;BME280;35993;52.604;10.078;2023-05-14T06:37:31;101488.75;;;18.03;58.96
50103;BME280;35993;52.604;10.078;2023-05-14T06:39:57;101486.09;;;18.42;58.42
50103;BME280;35993;52.604;10.078;2023-05-14T06:42:23;101486.16;;;18.47;57.23
50103;BME280;35993;52.604;10.078;2023-05-14T06:44:48;101485.47;;;18.74;56.49
50103;BME280;35993;52.604;10.078;2023-05-14T06:47:14;101480.94;;;18.85;56.21
50103;BME280;35993;52.604;10.078;2023-05-14T06:49:39;101485.53;;;18.79;56.04
50103;BME280;35993;52.604;10.078;2023-05-14T06:52:05;101485.72;;;18.73;55.94
50103;BME280;35993;52.604;10.078;2023-05-14T06:54:31;101489.50;;;18.89;55.81
50103;BME280;35993;52.604;10.078;2023-05-14T06:56:56;101481.75;;;19.03;55.58
50103;BME280;35993;52.604;10.078;2023-05-14T06:59:22;101475.47;;;19.29;54.75
50103;BME280;35993;52.604;10.078;2023-05-14T07:01:48;101470.19;;;19.50;54.34
50103;BME280;35993;52.604;10.078;2023-05-14T07:04:14;101463.91;;;19.55;53.54
50103;BME280;35993;52.604;10.078;2023-05-14T07:06:39;101466.25;;;19.41;53.92
50103;BME280;35993;52.604;10.078;2023-05-14T07:09:05;101471.34;;;19.54;53.61
50103;BME280;35993;52.604;10.078;2023-05-14T07:11:31;101460.88;;;19.78;52.65
50103;BME280;35993;52.604;10.078;2023-05-14T07:13:58;101465.16;;;19.69;52.86
50103;BME280;35993;52.604;10.078;2023-05-14T07:16:24;101467.94;;;19.20;53.56
50103;BME280;35993;52.604;10.078;2023-05-14T07:18:49;101465.38;;;19.35;53.17
50103;BME280;35993;52.604;10.078;2023-05-14T07:21:15;101466.81;;;19.43;52.92
50103;BME280;35993;52.604;10.078;2023-05-14T07:23:41;101465.03;;;19.31;53.38
50103;BME280;35993;52.604;10.078;2023-05-14T07:26:06;101458.94;;;19.29;53.26
50103;BME280;35993;52.604;10.078;2023-05-14T07:28:32;101453.44;;;19.29;53.37
50103;BME280;35993;52.604;10.078;2023-05-14T07:30:58;101447.06;;;19.24;53.17
50103;BME280;35993;52.604;10.078;2023-05-14T07:33:24;101443.44;;;19.73;52.25
50103;BME280;35993;52.604;10.078;2023-05-14T07:35:50;101443.41;;;19.95;51.82
50103;BME280;35993;52.604;10.078;2023-05-14T07:38:16;101441.81;;;20.04;51.71
50103;BME280;35993;52.604;10.078;2023-05-14T07:40:42;101444.19;;;19.90;52.02
50103;BME280;35993;52.604;10.078;2023-05-14T07:43:09;101448.13;;;20.00;51.44
50103;BME280;35993;52.604;10.078;2023-05-14T07:45:37;101433.31;;;20.11;50.72
50103;BME280;35993;52.604;10.078;2023-05-14T07:48:05;101428.88;;;20.42;49.76
50103;BME280;35993;52.604;10.078;2023-05-14T07:50:31;101444.50;;;19.94;51.67
50103;BME280;35993;52.604;10.078;2023-05-14T07:52:56;101436.53;;;20.35;50.25
50103;BME280;35993;52.604;10.078;2023-05-14T07:55:22;101435.44;;;20.36;49.99
50103;BME280;35993;52.604;10.078;2023-05-14T07:57:48;101433.69;;;20.68;49.43
50103;BME280;35993;52.604;10.078;2023-05-14T08:00:14;101427.78;;;20.97;49.20
50103;BME280;35993;52.604;10.078;2023-05-14T08:02:41;101429.94;;;20.84;49.33
50103;BME280;35993;52.604;10.078;2023-05-14T08:05:07;101438.34;;;20.57;49.92
50103;BME280;35993;52.604;10.078;2023-05-14T08:07:33;101421.53;;;20.63;49.76
50103;BME280;35993;52.604;10.078;2023-05-14T08:09:59;101420.06;;;20.93;48.92
50103;BME280;35993;52.604;10.078;2023-05-14T08:12:24;101414.56;;;20.99;48.74
50103;BME280;35993;52.604;10.078;2023-05-14T08:14:51;101414.25;;;20.90;49.16
50103;BME280;35993;52.604;10.078;2023-05-14T08:17:16;101406.88;;;21.11;48.11
50103;BME280;35993;52.604;10.078;2023-05-14T08:19:42;101404.91;;;20.96;48.46
50103;BME280;35993;52.604;10.078;2023-05-14T08:22:08;101412.50;;;21.47;47.78
50103;BME280;35993;52.604;10.078;2023-05-14T08:24:33;101410.53;;;21.42;48.23
50103;BME280;35993;52.604;10.078;2023-05-14T08:26:59;101409.91;;;21.09;48.70
50103;BME280;35993;52.604;10.078;2023-05-14T08:29:24;101402.53;;;21.41;47.85
50103;BME280;35993;52.604;10.078;2023-05-14T08:31:50;101408.41;;;21.86;47.31
50103;BME280;35993;52.604;10.078;2023-05-14T08:34:16;101397.59;;;21.69;47.44
50103;BME280;35993;52.604;10.078;2023-05-14T08:36:41;101388.97;;;21.39;46.42
50103;BME280;35993;52.604;10.078;2023-05-14T08:39:07;101390.16;;;21.69;45.79
50103;BME280;35993;52.604;10.078;2023-05-14T08:41:33;101384.31;;;22.07;45.00
50103;BME280;35993;52.604;10.078;2023-05-14T08:44:22;101383.72;;;22.36;44.85
50103;BME280;35993;52.604;10.078;2023-05-14T08:46:45;101379.91;;;22.21;44.66
50103;BME280;35993;52.604;10.078;2023-05-14T08:51:55;101373.97;;;22.69;44.34
50103;BME280;35993;52.604;10.078;2023-05-14T08:54:20;101369.81;;;22.72;44.27
50103;BME280;35993;52.604;10.078;2023-05-14T08:56:50;101370.31;;;22.84;43.36
50103;BME280;35993;52.604;10.078;2023-05-14T08:59:16;101360.94;;;22.80;42.36
50103;BME280;35993;52.604;10.078;2023-05-14T09:01:45;101353.13;;;22.87;41.77
50103;BME280;35993;52.604;10.078;2023-05-14T09:04:18;101353.81;;;23.14;41.67
50103;BME280;35993;52.604;10.078;2023-05-14T09:06:48;101353.19;;;23.27;40.94
50103;BME280;35993;52.604;10.078;2023-05-14T09:09:14;101346.38;;;23.49;40.63
50103;BME280;35993;52.604;10.078;2023-05-14T09:11:41;101346.56;;;23.63;39.36
50103;BME280;35993;52.604;10.078;2023-05-14T09:14:07;101345.19;;;23.95;39.03
50103;BME280;35993;52.604;10.078;2023-05-14T09:16:33;101339.53;;;24.05;38.74
50103;BME280;35993;52.604;10.078;2023-05-14T09:19:02;101322.41;;;24.27;37.58
50103;BME280;35993;52.604;10.078;2023-05-14T09:21:28;101315.59;;;24.14;37.32
50103;BME280;35993;52.604;10.078;2023-05-14T09:23:56;101323.03;;;24.43;37.09
50103;BME280;35993;52.604;10.078;2023-05-14T09:26:25;101320.19;;;24.48;37.47
50103;BME280;35993;52.604;10.078;2023-05-14T09:28:54;101316.88;;;24.70;37.28
50103;BME280;35993;52.604;10.078;2023-05-14T09:31:22;101312.78;;;24.63;37.16
50103;BME280;35993;52.604;10.078;2023-05-14T09:33:51;101303.09;;;24.60;35.98
50103;BME280;35993;52.604;10.078;2023-05-14T09:36:18;101303.78;;;24.95;36.00
50103;BME280;35993;52.604;10.078;2023-05-14T09:38:44;101311.88;;;25.11;36.10
50103;BME280;35993;52.604;10.078;2023-05-14T09:41:10;101304.59;;;25.67;34.90
50103;BME280;35993;52.604;10.078;2023-05-14T09:43:37;101313.03;;;21.99;40.87
50103;BME280;35993;52.604;10.078;2023-05-14T09:46:03;101312.50;;;21.40;42.41
50103;BME280;35993;52.604;10.078;2023-05-14T09:48:29;101314.97;;;21.26;42.38
50103;BME280;35993;52.604;10.078;2023-05-14T09:50:55;101330.16;;;21.44;43.00
50103;BME280;35993;52.604;10.078;2023-05-14T09:53:20;101319.69;;;21.51;42.06
50103;BME280;35993;52.604;10.078;2023-05-14T09:55:46;101317.22;;;21.60;42.11
50103;BME280;35993;52.604;10.078;2023-05-14T09:58:12;101292.06;;;21.36;41.29
50103;BME280;35993;52.604;10.078;2023-05-14T10:00:44;101300.88;;;21.48;42.23
50103;BME280;35993;52.604;10.078;2023-05-14T10:03:13;101291.00;;;21.57;40.96
50103;BME280;35993;52.604;10.078;2023-05-14T10:05:40;101278.56;;;21.60;40.64
50103;BME280;35993;52.604;10.078;2023-05-14T10:08:09;101290.94;;;21.93;41.70
50103;BME280;35993;52.604;10.078;2023-05-14T10:10:37;101295.34;;;21.95;41.17
50103;BME280;35993;52.604;10.078;2023-05-14T10:13:12;101283.16;;;22.01;40.68
50103;BME280;35993;52.604;10.078;2023-05-14T10:15:42;101277.00;;;22.30;39.65
50103;BME280;35993;52.604;10.078;2023-05-14T10:18:11;101266.81;;;22.15;39.49
50103;BME280;35993;52.604;10.078;2023-05-14T10:20:39;101263.78;;;22.16;39.26
50103;BME280;35993;52.604;10.078;2023-05-14T10:23:05;101266.38;;;21.76;39.44
50103;BME280;35993;52.604;10.078;2023-05-14T10:25:35;101258.75;;;22.23;38.74
50103;BME280;35993;52.604;10.078;2023-05-14T10:28:02;101254.31;;;22.38;38.11
50103;BME280;35993;52.604;10.078;2023-05-14T10:30:28;101258.09;;;22.57;39.14
50103;BME280;35993;52.604;10.078;2023-05-14T10:35:56;101247.41;;;22.85;38.35
50103;BME280;35993;52.604;10.078;2023-05-14T10:38:25;101236.63;;;22.79;38.16
50103;BME280;35993;52.604;10.078;2023-05-14T10:41:03;101240.53;;;22.78;37.78
50103;BME280;35993;52.604;10.078;2023-05-14T10:43:31;101221.50;;;23.05;37.34
50103;BME280;35993;52.604;10.078;2023-05-14T10:46:00;101227.00;;;23.11;38.00
50103;BME280;35993;52.604;10.078;2023-05-14T10:48:27;101236.13;;;23.16;37.52
50103;BME280;35993;52.604;10.078;2023-05-14T10:50:55;101226.94;;;23.21;36.63
50103;BME280;35993;52.604;10.078;2023-05-14T10:53:36;101221.66;;;23.24;35.49
50103;BME280;35993;52.604;10.078;2023-05-14T10:56:09;101215.63;;;22.78;35.83
50103;BME280;35993;52.604;10.078;2023-05-14T10:58:36;101219.59;;;22.06;37.03
50103;BME280;35993;52.604;10.078;2023-05-14T11:01:02;101224.56;;;21.99;37.65
50103;BME280;35993;52.604;10.078;2023-05-14T11:03:30;101223.28;;;22.46;36.99
50103;BME280;35993;52.604;10.078;2023-05-14T11:05:58;101208.34;;;22.47;35.91
50103;BME280;35993;52.604;10.078;2023-05-14T11:08:27;101215.56;;;22.43;36.35
50103;BME280;35993;52.604;10.078;2023-05-14T11:10:53;101207.00;;;22.39;36.11
50103;BME280;35993;52.604;10.078;2023-05-14T11:13:19;101205.94;;;22.25;36.23
50103;BME280;35993;52.604;10.078;2023-05-14T11:15:45;101206.63;;;21.91;36.83
50103;BME280;35993;52.604;10.078;2023-05-14T11:18:13;101201.66;;;21.88;36.87
50103;BME280;35993;52.604;10.078;2023-05-14T11:20:39;101206.97;;;22.45;36.61
50103;BME280;35993;52.604;10.078;2023-05-14T11:23:04;101196.09;;;22.58;35.74
50103;BME280;35993;52.604;10.078;2023-05-14T11:25:30;101191.78;;;22.82;35.25
50103;BME280;35993;52.604;10.078;2023-05-14T11:27:56;101185.22;;;22.67;35.56
50103;BME280;35993;52.604;10.078;2023-05-14T11:30:23;101185.16;;;22.43;36.42
50103;BME280;35993;52.604;10.078;2023-05-14T11:32:49;101183.81;;;22.75;36.14
50103;BME280;35993;52.604;10.078;2023-05-14T11:35:15;101172.78;;;23.04;35.55
50103;BME280;35993;52.604;10.078;2023-05-14T11:37:42;101179.34;;;23.14;36.49
50103;BME280;35993;52.604;10.078;2023-05-14T11:40:14;101175.34;;;22.96;36.32
50103;BME280;35993;52.604;10.078;2023-05-14T11:42:41;101170.63;;;22.62;36.58
50103;BME280;35993;52.604;10.078;2023-05-14T11:45:09;101157.16;;;22.50;36.12
50103;BME280;35993;52.604;10.078;2023-05-14T11:47:36;101160.81;;;22.40;36.82
50103;BME280;35993;52.604;10.078;2023-05-14T11:50:02;101164.53;;;22.09;37.35
50103;BME280;35993;52.604;10.078;2023-05-14T11:52:27;101162.97;;;21.83;37.26
50103;BME280;35993;52.604;10.078;2023-05-14T11:54:53;101150.88;;;21.73;36.20
50103;BME280;35993;52.604;10.078;2023-05-14T11:57:20;101148.38;;;21.72;36.55
50103;BME280;35993;52.604;10.078;2023-05-14T11:59:47;101139.56;;;21.65;36.47
50103;BME280;35993;52.604;10.078;2023-05-14T12:02:15;101135.16;;;21.53;36.39
50103;BME280;35993;52.604;10.078;2023-05-14T12:04:42;101143.44;;;21.58;36.98
50103;BME280;35993;52.604;10.078;2023-05-14T12:07:13;101152.88;;;21.57;37.41
50103;BME280;35993;52.604;10.078;2023-05-14T12:09:41;101139.03;;;21.52;37.31
50103;BME280;35993;52.604;10.078;2023-05-14T12:12:11;101147.31;;;21.52;37.89
50103;BME280;35993;52.604;10.078;2023-05-14T12:14:41;101148.94;;;21.69;38.04
50103;BME280;35993;52.604;10.078;2023-05-14T12:17:22;101141.16;;;21.81;37.63
50103;BME280;35993;52.604;10.078;2023-05-14T12:19:50;101142.16;;;22.11;37.60
50103;BME280;35993;52.604;10.078;2023-05-14T12:22:17;101132.22;;;22.55;36.37
50103;BME280;35993;52.604;10.078;2023-05-14T12:24:55;101139.41;;;22.90;35.70
50103;BME280;35993;52.604;10.078;2023-05-14T12:27:22;101137.41;;;22.96;34.86
50103;BME280;35993;52.604;10.078;2023-05-14T12:29:50;101125.78;;;22.99;34.71
50103;BME280;35993;52.604;10.078;2023-05-14T12:32:24;101134.50;;;23.12;35.01
50103;BME280;35993;52.604;10.078;2023-05-14T12:34:50;101137.63;;;23.05;35.65
50103;BME280;35993;52.604;10.078;2023-05-14T12:37:15;101151.53;;;22.60;36.55
50103;BME280;35993;52.604;10.078;2023-05-14T12:39:42;101179.78;;;21.97;38.07
50103;BME280;35993;52.604;10.078;2023-05-14T12:42:08;101174.69;;;21.38;39.32
50103;BME280;35993;52.604;10.078;2023-05-14T12:44:34;101179.41;;;21.02;40.59
50103;BME280;35993;52.604;10.078;2023-05-14T12:46:59;101176.59;;;20.66;41.48